Terminal Aerodrome Forecast
Issued by NWS Louisville, KY

Home | Current Version | Previous Version | Text Only | Print | Product List | Glossary On
Versions: 1 2 3 4 5 6 7 8 9 10 11 12 13 14 15
000
FTUS43 KLMK 190500
TAFSDF
TAF
KSDF 190525Z 1906/2012 06006KT P6SM SCT070 BKN250
     FM191000 11007KT P6SM -SHRA SCT025 BKN035
     FM191200 12008KT 5SM -SHRA BR VCTS BKN015CB
     FM191500 13007KT 5SM -SHRA BR VCTS BKN008 OVC015CB
     FM191800 15012G21KT P6SM VCSH BKN015 PROB30 1921/1924 6SM -TSRA
      BKN015CB
     FM200000 23010KT P6SM BKN025=

USA.gov is the U.S. government's official web portal to all federal, state and local government web resources and services.